createdAt,value
2018-03-04T00:01:04.811Z,15.07
2018-03-04T00:03:32.458Z,13.02
2018-03-04T00:06:00.101Z,12.70
2018-03-04T00:08:27.751Z,12.23
2018-03-04T00:10:55.372Z,11.93
2018-03-04T00:13:23.030Z,13.35
2018-03-04T00:15:51.396Z,13.67
2018-03-04T00:18:19.029Z,12.32
2018-03-04T00:20:46.657Z,12.07
2018-03-04T00:23:14.299Z,10.07
2018-03-04T00:25:41.910Z,12.47
2018-03-04T00:28:09.516Z,13.97
2018-03-04T00:30:37.154Z,12.07
2018-03-04T00:33:05.516Z,14.90
2018-03-04T00:35:33.218Z,13.43
2018-03-04T00:38:01.580Z,12.32
2018-03-04T00:40:29.184Z,14.20
2018-03-04T00:42:56.815Z,15.07
2018-03-04T00:45:24.489Z,13.80
2018-03-04T00:47:52.105Z,13.30
2018-03-04T00:50:19.760Z,14.10
2018-03-04T00:52:47.390Z,12.88
2018-03-04T00:55:15.820Z,12.48
2018-03-04T00:57:43.414Z,12.15
2018-03-04T01:00:11.029Z,12.55
2018-03-04T01:02:38.859Z,11.12
2018-03-04T01:05:06.493Z,10.27
2018-03-04T01:07:34.158Z,13.60
2018-03-04T01:10:01.774Z,14.37
2018-03-04T01:12:30.161Z,11.83
2018-03-04T01:14:58.542Z,14.57
2018-03-04T01:17:26.956Z,15.05
2018-03-04T01:19:54.581Z,13.18
2018-03-04T01:22:22.230Z,15.98
2018-03-04T01:24:49.894Z,13.20
2018-03-04T01:27:17.495Z,14.07
2018-03-04T01:29:45.895Z,15.25
2018-03-04T01:32:13.493Z,12.73
2018-03-04T01:34:41.101Z,14.07
2018-03-04T01:37:09.936Z,14.87
2018-03-04T01:39:37.656Z,11.30
2018-03-04T01:42:06.065Z,13.02
2018-03-04T01:44:34.433Z,12.68
2018-03-04T01:47:02.551Z,11.73
2018-03-04T01:49:30.176Z,14.23
2018-03-04T01:51:58.566Z,15.77
2018-03-04T01:54:26.971Z,14.68
2018-03-04T01:56:54.585Z,13.13
2018-03-04T01:59:22.254Z,12.18
2018-03-04T02:01:49.890Z,14.15
2018-03-04T02:04:17.837Z,14.30
2018-03-04T02:06:45.443Z,13.98
2018-03-04T02:09:14.445Z,10.77
2018-03-04T02:11:42.153Z,13.62
2018-03-04T02:14:10.568Z,12.10
2018-03-04T02:16:38.191Z,12.02
2018-03-04T02:19:05.824Z,14.52
2018-03-04T02:21:33.420Z,11.77
2018-03-04T02:24:01.069Z,13.07
2018-03-04T02:26:28.698Z,12.77
2018-03-04T02:28:56.334Z,15.05
2018-03-04T02:31:24.754Z,11.23
2018-03-04T02:33:52.412Z,16.03
2018-03-04T02:36:20.044Z,12.20
2018-03-04T02:38:47.674Z,10.98
2018-03-04T02:41:15.315Z,12.45
2018-03-04T02:43:42.927Z,13.02
2018-03-04T02:46:10.538Z,11.32
2018-03-04T02:48:38.178Z,13.30
2018-03-04T02:51:06.567Z,12.27
2018-03-04T02:53:34.213Z,11.10
2018-03-04T02:56:01.818Z,10.35
2018-03-04T02:58:29.440Z,13.98
2018-03-04T03:00:57.898Z,11.55
2018-03-04T03:03:25.517Z,11.60
2018-03-04T03:05:53.886Z,13.98
2018-03-04T03:08:22.376Z,11.73
2018-03-04T03:10:50.776Z,12.07
2018-03-04T03:13:18.408Z,12.82
2018-03-04T03:15:46.005Z,12.35
2018-03-04T03:18:14.367Z,15.45
2018-03-04T03:20:41.993Z,10.57
2018-03-04T03:23:09.605Z,15.63
2018-03-04T03:25:38.018Z,11.75
2018-03-04T03:28:06.603Z,10.43
2018-03-04T03:30:34.213Z,12.77
2018-03-04T03:33:01.857Z,15.13
2018-03-04T03:35:29.458Z,11.63
2018-03-04T03:37:57.130Z,13.27
2018-03-04T03:40:24.792Z,10.43
2018-03-04T03:42:52.405Z,15.70
2018-03-04T03:45:20.052Z,13.27
2018-03-04T03:47:48.454Z,13.98
2018-03-04T03:50:16.092Z,12.52
2018-03-04T03:52:44.457Z,11.82
2018-03-04T03:55:12.127Z,10.68
2018-03-04T03:57:39.764Z,13.07
2018-03-04T04:00:07.399Z,10.30
2018-03-04T04:02:35.092Z,12.32
2018-03-04T04:05:02.733Z,13.85
2018-03-04T04:07:30.387Z,13.93
2018-03-04T04:09:58.777Z,10.53
2018-03-04T04:12:27.176Z,11.15
2018-03-04T04:14:55.437Z,12.27
2018-03-04T04:17:24.085Z,12.55
2018-03-04T04:19:52.500Z,13.20
2018-03-04T04:22:20.889Z,11.75
2018-03-04T04:24:49.264Z,9.90
2018-03-04T04:27:16.941Z,10.38
2018-03-04T04:29:45.306Z,12.90
2018-03-04T04:32:13.040Z,13.27
2018-03-04T04:34:40.637Z,11.68
2018-03-04T04:37:08.237Z,15.07
2018-03-04T04:39:35.891Z,11.43
2018-03-04T04:42:04.546Z,13.02
2018-03-04T04:44:32.150Z,12.52
2018-03-04T04:47:01.171Z,13.02
2018-03-04T04:49:28.815Z,14.55
2018-03-04T04:51:57.610Z,10.35
2018-03-04T04:54:25.966Z,11.32
2018-03-04T04:56:53.630Z,12.25
2018-03-04T04:59:21.269Z,12.90
2018-03-04T05:01:48.892Z,11.98
2018-03-04T05:04:17.302Z,11.27
2018-03-04T05:06:44.909Z,12.00
2018-03-04T05:09:12.812Z,10.93
2018-03-04T05:11:41.186Z,10.60
2018-03-04T05:14:09.549Z,11.52
2018-03-04T05:16:37.201Z,14.75
2018-03-04T05:19:04.815Z,13.25
2018-03-04T05:21:33.178Z,9.98
2018-03-04T05:24:01.599Z,13.77
2018-03-04T05:26:29.275Z,11.73
2018-03-04T05:28:56.945Z,15.20
2018-03-04T05:31:24.551Z,12.93
2018-03-04T05:33:52.186Z,12.13
2018-03-04T05:36:19.795Z,12.95
2018-03-04T05:38:47.414Z,9.90
2018-03-04T05:41:15.040Z,11.27
2018-03-04T05:43:43.463Z,10.95
2018-03-04T05:46:11.083Z,11.73
2018-03-04T05:48:39.611Z,12.48
2018-03-04T05:51:07.234Z,10.80
2018-03-04T05:53:35.951Z,11.32
2018-03-04T05:56:03.552Z,9.82
2018-03-04T05:58:31.185Z,9.65
2018-03-04T06:01:00.435Z,10.50
2018-03-04T06:03:28.067Z,11.12
2018-03-04T06:05:55.713Z,13.80
2018-03-04T06:08:23.314Z,12.37
2018-03-04T06:10:51.325Z,11.80
2018-03-04T06:13:19.692Z,11.98
2018-03-04T06:15:48.047Z,12.15
2018-03-04T06:18:16.460Z,12.80
2018-03-04T06:20:44.088Z,14.45
2018-03-04T06:23:11.737Z,14.57
2018-03-04T06:25:39.375Z,15.15
2018-03-04T06:28:07.028Z,11.48
2018-03-04T06:30:34.628Z,12.93
2018-03-04T06:33:03.025Z,13.27
2018-03-04T06:35:30.667Z,12.25
2018-03-04T06:37:59.047Z,10.77
2018-03-04T06:40:27.499Z,13.05
2018-03-04T06:42:55.148Z,12.23
2018-03-04T06:45:22.787Z,11.15
2018-03-04T06:47:50.439Z,11.30
2018-03-04T06:50:18.838Z,12.82
2018-03-04T06:52:46.840Z,11.57
2018-03-04T06:55:14.476Z,12.00
2018-03-04T06:57:42.102Z,12.93
2018-03-04T07:00:09.761Z,13.50
2018-03-04T07:02:37.382Z,11.45
2018-03-04T07:05:04.990Z,12.15
2018-03-04T07:07:32.606Z,13.00
2018-03-04T07:10:00.264Z,12.60
2018-03-04T07:12:27.892Z,11.95
2018-03-04T07:14:55.531Z,11.47
2018-03-04T07:17:23.185Z,16.05
2018-03-04T07:19:50.838Z,14.80
2018-03-04T07:22:18.458Z,13.15
2018-03-04T07:24:46.102Z,15.75
2018-03-04T07:27:14.026Z,15.13
2018-03-04T07:29:42.410Z,13.55
2018-03-04T07:32:10.052Z,14.63
2018-03-04T07:34:37.702Z,14.15
2018-03-04T07:37:05.366Z,14.07
2018-03-04T07:39:32.998Z,13.20
2018-03-04T07:42:00.645Z,13.25
2018-03-04T07:44:28.320Z,12.73
2018-03-04T07:46:55.999Z,15.27
2018-03-04T07:49:24.454Z,15.93
2018-03-04T07:51:53.512Z,17.17
2018-03-04T07:54:21.109Z,16.27
2018-03-04T07:56:49.157Z,14.35
2018-03-04T07:59:19.569Z,16.45
2018-03-04T08:01:47.202Z,14.38
2018-03-04T08:04:15.594Z,16.33
2018-03-04T08:06:43.255Z,13.43
2018-03-04T08:09:11.666Z,16.63
2018-03-04T08:11:39.295Z,14.27
2018-03-04T08:14:07.731Z,14.02
2018-03-04T08:16:35.402Z,14.00
2018-03-04T08:19:03.035Z,16.05
2018-03-04T08:21:30.665Z,15.73
2018-03-04T08:23:58.884Z,14.93
2018-03-04T08:26:38.453Z,17.25
2018-03-04T08:29:06.147Z,13.13
2018-03-04T08:31:33.763Z,16.17
2018-03-04T08:34:01.419Z,12.35
2018-03-04T08:36:29.198Z,16.00
2018-03-04T08:38:56.812Z,14.52
2018-03-04T08:41:24.451Z,18.42
2018-03-04T08:43:53.540Z,16.15
2018-03-04T08:46:21.720Z,15.35
2018-03-04T08:48:50.243Z,14.25
2018-03-04T08:51:17.927Z,14.77
2018-03-04T08:53:46.381Z,13.68
2018-03-04T08:56:14.900Z,18.98
2018-03-04T08:58:42.554Z,16.30
2018-03-04T09:01:10.176Z,16.42
2018-03-04T09:03:38.220Z,15.07
2018-03-04T09:06:06.599Z,15.43
2018-03-04T09:08:35.211Z,13.48
2018-03-04T09:11:03.452Z,16.17
2018-03-04T09:13:31.086Z,18.60
2018-03-04T09:15:58.920Z,16.48
2018-03-04T09:18:27.397Z,16.10
2018-03-04T09:20:55.782Z,16.37
2018-03-04T09:23:24.211Z,19.80
2018-03-04T09:25:52.134Z,17.10
2018-03-04T09:28:20.510Z,19.17
2018-03-04T09:30:48.948Z,17.15
2018-03-04T09:33:16.631Z,17.25
2018-03-04T09:35:44.784Z,21.55
2018-03-04T09:38:12.398Z,20.15
2018-03-04T09:40:40.795Z,20.67
2018-03-04T09:43:09.272Z,19.48
2018-03-04T09:45:37.744Z,21.42
2018-03-04T09:48:06.252Z,20.20
2018-03-04T09:50:34.684Z,21.10
2018-03-04T09:53:02.352Z,21.08
2018-03-04T09:55:30.014Z,20.17
2018-03-04T09:57:58.531Z,19.52
2018-03-04T10:00:26.634Z,19.27
2018-03-04T10:02:55.022Z,16.55
2018-03-04T10:05:23.394Z,20.90
2018-03-04T10:07:51.094Z,21.75
2018-03-04T10:10:18.699Z,21.27
2018-03-04T10:12:46.367Z,21.23
2018-03-04T10:15:15.397Z,20.98
2018-03-04T10:17:43.859Z,19.35
2018-03-04T10:20:11.531Z,22.50
2018-03-04T10:22:39.922Z,19.67
2018-03-04T10:25:07.602Z,20.88
2018-03-04T10:27:35.325Z,20.80
2018-03-04T10:30:02.988Z,23.38
2018-03-04T10:32:30.651Z,21.27
2018-03-04T10:34:58.325Z,19.50
2018-03-04T10:37:25.997Z,24.33
2018-03-04T10:39:53.738Z,20.50
2018-03-04T10:42:21.689Z,21.77
2018-03-04T10:44:50.076Z,21.67
2018-03-04T10:47:17.694Z,22.35
2018-03-04T10:49:45.389Z,21.45
2018-03-04T10:52:13.071Z,22.90
2018-03-04T10:54:41.031Z,20.85
2018-03-04T10:57:09.429Z,19.60
2018-03-04T10:59:37.813Z,20.62
2018-03-04T11:02:23.893Z,20.35
2018-03-04T11:04:51.540Z,19.17
2018-03-04T11:07:19.227Z,19.58
2018-03-04T11:09:46.866Z,19.70
2018-03-04T11:12:14.491Z,22.80
2018-03-04T11:14:42.147Z,19.35
2018-03-04T11:17:09.852Z,21.55
2018-03-04T11:19:37.495Z,20.40
2018-03-04T11:22:05.535Z,20.00
2018-03-04T11:24:33.980Z,22.65
2018-03-04T11:27:02.024Z,21.70
2018-03-04T11:29:29.661Z,19.02
2018-03-04T11:31:58.100Z,21.93
2018-03-04T11:34:25.991Z,21.65
2018-03-04T11:36:53.610Z,23.02
2018-03-04T11:39:21.277Z,18.40
2018-03-04T11:41:49.658Z,21.80
2018-03-04T11:44:17.322Z,23.12
2018-03-04T11:46:44.957Z,25.77
2018-03-04T11:49:12.587Z,21.92
2018-03-04T11:51:40.253Z,22.92
2018-03-04T11:54:07.911Z,21.73
2018-03-04T11:56:35.547Z,24.60
2018-03-04T11:59:03.221Z,23.45
2018-03-04T12:01:30.853Z,23.40
2018-03-04T12:03:58.546Z,23.25
2018-03-04T12:06:26.912Z,23.33
2018-03-04T12:08:54.567Z,21.10
2018-03-04T12:11:22.208Z,22.13
2018-03-04T12:13:49.891Z,25.75
2018-03-04T12:16:17.598Z,23.48
2018-03-04T12:18:45.983Z,23.60
2018-03-04T12:21:14.406Z,24.87
2018-03-04T12:23:42.073Z,21.95
2018-03-04T12:26:09.695Z,25.23
2018-03-04T12:28:38.159Z,24.63
2018-03-04T12:31:05.833Z,23.90
2018-03-04T12:33:35.134Z,24.65
2018-03-04T12:36:05.204Z,23.53
2018-03-04T12:38:32.883Z,25.47
2018-03-04T12:41:00.516Z,26.17
2018-03-04T12:43:28.187Z,25.17
2018-03-04T12:45:55.835Z,24.53
2018-03-04T12:48:24.257Z,23.08
2018-03-04T12:50:51.934Z,25.27
2018-03-04T12:53:19.568Z,24.58
2018-03-04T12:55:47.185Z,20.73
2018-03-04T12:58:14.823Z,24.50
2018-03-04T13:00:43.270Z,23.80
2018-03-04T13:03:11.962Z,23.12
2018-03-04T13:05:40.348Z,26.35
2018-03-04T13:08:08.735Z,25.75
2018-03-04T13:10:36.431Z,21.98
2018-03-04T13:13:04.048Z,26.10
2018-03-04T13:15:31.715Z,22.10
2018-03-04T13:18:00.120Z,25.92
2018-03-04T13:20:28.215Z,21.70
2018-03-04T13:22:55.827Z,24.63
2018-03-04T13:25:23.542Z,23.52
2018-03-04T13:27:51.165Z,25.42
2018-03-04T13:30:18.859Z,24.27
2018-03-04T13:32:47.237Z,21.23
2018-03-04T13:35:14.868Z,21.55
2018-03-04T13:37:42.898Z,22.10
2018-03-04T13:40:11.089Z,21.45
2018-03-04T13:42:39.072Z,22.85
2018-03-04T13:45:06.702Z,22.80
2018-03-04T13:47:34.380Z,23.30
2018-03-04T13:50:02.047Z,21.55
2018-03-04T13:52:30.428Z,23.50
2018-03-04T13:54:58.488Z,20.85
2018-03-04T13:57:26.869Z,22.60
2018-03-04T13:59:55.286Z,23.12
2018-03-04T14:02:23.074Z,22.08
2018-03-04T14:04:50.734Z,25.30
2018-03-04T14:07:18.335Z,21.90
2018-03-04T14:09:46.005Z,22.55
2018-03-04T14:12:13.643Z,20.60
2018-03-04T14:14:41.298Z,19.98
2018-03-04T14:17:08.976Z,21.70
2018-03-04T14:19:36.579Z,22.10
2018-03-04T14:22:04.242Z,21.10
2018-03-04T14:24:31.937Z,20.42
2018-03-04T14:26:59.592Z,20.45
2018-03-04T14:29:28.013Z,19.57
2018-03-04T14:31:55.740Z,20.88
2018-03-04T14:34:23.410Z,21.27
2018-03-04T14:36:51.858Z,18.98
2018-03-04T14:39:20.149Z,20.77
2018-03-04T14:41:47.754Z,21.00
2018-03-04T14:44:16.212Z,20.77
2018-03-04T14:46:43.879Z,21.87
2018-03-04T14:49:12.278Z,20.00
2018-03-04T14:51:40.076Z,21.87
2018-03-04T14:54:07.689Z,18.42
2018-03-04T14:56:36.113Z,21.80
2018-03-04T14:59:03.735Z,23.62
2018-03-04T15:01:31.641Z,20.08
2018-03-04T15:03:59.266Z,21.90
2018-03-04T15:06:26.890Z,20.62
2018-03-04T15:08:54.535Z,19.23
2018-03-04T15:11:22.158Z,22.30
2018-03-04T15:13:51.845Z,22.37
2018-03-04T15:16:20.308Z,22.25
2018-03-04T15:18:47.927Z,20.88
2018-03-04T15:21:15.595Z,19.80
2018-03-04T15:23:43.227Z,22.27
2018-03-04T15:26:10.854Z,21.73
2018-03-04T15:28:38.881Z,21.33
2018-03-04T15:31:06.494Z,22.98
2018-03-04T15:33:34.106Z,20.73
2018-03-04T15:36:01.802Z,22.90
2018-03-04T15:38:30.255Z,20.12
2018-03-04T15:40:57.912Z,21.77
2018-03-04T15:43:25.568Z,21.98
2018-03-04T15:45:53.256Z,19.70
2018-03-04T15:48:21.739Z,22.37
2018-03-04T15:50:50.162Z,21.33
2018-03-04T15:53:17.808Z,22.85
2018-03-04T15:55:45.472Z,21.30
2018-03-04T15:58:13.146Z,18.17
2018-03-04T16:00:40.781Z,18.58
2018-03-04T16:03:08.395Z,21.00
2018-03-04T16:05:36.052Z,19.77
2018-03-04T16:08:03.926Z,21.95
2018-03-04T16:10:33.059Z,19.77
2018-03-04T16:13:01.148Z,20.15
2018-03-04T16:15:28.825Z,19.37
2018-03-04T16:17:58.011Z,20.37
2018-03-04T16:20:25.676Z,19.90
2018-03-04T16:22:53.334Z,19.87
2018-03-04T16:25:20.966Z,22.77
2018-03-04T16:27:48.651Z,20.83
2018-03-04T16:30:16.290Z,22.77
2018-03-04T16:32:45.551Z,21.50
2018-03-04T16:35:13.213Z,20.92
2018-03-04T16:37:40.876Z,18.95
2018-03-04T16:40:09.303Z,19.75
2018-03-04T16:42:37.072Z,18.90
2018-03-04T16:45:04.735Z,20.60
2018-03-04T16:47:32.398Z,19.00
2018-03-04T16:50:00.111Z,19.85
2018-03-04T16:52:28.232Z,19.92
2018-03-04T16:54:55.877Z,20.37
2018-03-04T16:57:24.295Z,22.65
2018-03-04T16:59:51.989Z,23.05
2018-03-04T17:02:19.683Z,17.73
2018-03-04T17:04:48.130Z,23.67
2018-03-04T17:07:15.823Z,19.90
2018-03-04T17:09:43.460Z,18.62
2018-03-04T17:12:11.094Z,20.83
2018-03-04T17:14:39.800Z,17.87
2018-03-04T17:17:07.496Z,19.08
2018-03-04T17:19:35.127Z,18.17
2018-03-04T17:22:02.788Z,20.10
2018-03-04T17:24:30.705Z,21.92
2018-03-04T17:26:58.341Z,18.42
2018-03-04T17:29:26.012Z,19.02
2018-03-04T17:31:53.686Z,25.17
2018-03-04T17:34:21.329Z,19.53
2018-03-04T17:36:48.958Z,16.83
2018-03-04T17:39:16.649Z,19.23
2018-03-04T17:41:45.070Z,20.05
2018-03-04T17:44:12.704Z,19.58
2018-03-04T17:46:40.375Z,19.23
2018-03-04T17:49:07.989Z,18.95
2018-03-04T17:51:35.690Z,20.50
2018-03-04T17:54:04.128Z,20.30
2018-03-04T17:56:31.802Z,22.25
2018-03-04T17:58:59.459Z,20.00
2018-03-04T18:01:27.136Z,19.52
2018-03-04T18:03:54.742Z,23.85
2018-03-04T18:06:23.153Z,18.27
2018-03-04T18:08:50.815Z,19.50
2018-03-04T18:11:18.789Z,20.33
2018-03-04T18:13:46.426Z,17.60
2018-03-04T18:16:14.858Z,21.93
2018-03-04T18:18:42.500Z,19.45
2018-03-04T18:21:10.139Z,20.10
2018-03-04T18:23:37.794Z,21.70
2018-03-04T18:26:05.413Z,21.37
2018-03-04T18:28:33.098Z,21.87
2018-03-04T18:31:00.755Z,22.23
2018-03-04T18:33:28.389Z,19.42
2018-03-04T18:35:56.810Z,22.33
2018-03-04T18:38:24.457Z,20.12
2018-03-04T18:40:52.092Z,20.75
2018-03-04T18:43:19.717Z,22.35
2018-03-04T18:45:47.364Z,23.85
2018-03-04T18:48:14.995Z,21.05
2018-03-04T18:50:43.462Z,21.80
2018-03-04T18:53:11.178Z,20.42
2018-03-04T18:55:38.851Z,20.88
2018-03-04T18:58:06.851Z,22.37
2018-03-04T19:00:34.492Z,18.60
2018-03-04T19:03:02.123Z,21.90
2018-03-04T19:05:30.585Z,19.75
2018-03-04T19:07:58.226Z,20.88
2018-03-04T19:10:25.903Z,21.15
2018-03-04T19:12:53.825Z,22.53
2018-03-04T19:15:22.220Z,20.98
2018-03-04T19:17:49.915Z,19.60
2018-03-04T19:20:17.691Z,19.90
2018-03-04T19:22:45.385Z,20.77
2018-03-04T19:25:13.071Z,20.57
2018-03-04T19:27:41.481Z,16.97
2018-03-04T19:30:09.210Z,20.15
2018-03-04T19:32:36.896Z,20.37
2018-03-04T19:35:05.635Z,20.70
2018-03-04T19:37:33.403Z,20.83
2018-03-04T19:40:01.014Z,19.55
2018-03-04T19:42:29.459Z,19.15
2018-03-04T19:44:57.138Z,23.05
2018-03-04T19:47:24.887Z,21.65
2018-03-04T19:49:52.573Z,18.95
2018-03-04T19:52:20.237Z,19.50
2018-03-04T19:54:47.882Z,20.62
2018-03-04T19:57:15.608Z,21.25
2018-03-04T19:59:44.026Z,17.98
2018-03-04T20:02:12.787Z,17.92
2018-03-04T20:04:40.577Z,21.27
2018-03-04T20:07:09.022Z,23.75
2018-03-04T20:09:36.896Z,19.42
2018-03-04T20:12:05.451Z,22.77
2018-03-04T20:14:33.280Z,20.17
2018-03-04T20:17:01.045Z,20.17
2018-03-04T20:19:31.099Z,20.95
2018-03-04T20:22:00.623Z,22.27
2018-03-04T20:24:28.279Z,23.77
2018-03-04T20:26:57.003Z,19.98
2018-03-04T20:29:24.637Z,22.65
2018-03-04T20:31:52.348Z,22.35
2018-03-04T20:34:19.988Z,17.77
2018-03-04T20:36:48.436Z,20.50
2018-03-04T20:39:16.072Z,21.45
2018-03-04T20:41:43.765Z,20.73
2018-03-04T20:44:12.338Z,22.67
2018-03-04T20:46:40.005Z,21.25
2018-03-04T20:49:08.386Z,21.13
2018-03-04T20:51:35.990Z,19.87
2018-03-04T20:54:04.773Z,19.52
2018-03-04T20:56:33.155Z,19.17
2018-03-04T20:59:01.549Z,23.15
2018-03-04T21:01:30.143Z,20.17
2018-03-04T21:03:57.761Z,19.60
2018-03-04T21:06:26.180Z,20.17
2018-03-04T21:08:55.188Z,21.05
2018-03-04T21:11:23.651Z,22.57
2018-03-04T21:13:51.630Z,22.37
2018-03-04T21:16:19.484Z,20.67
2018-03-04T21:18:47.163Z,24.05
2018-03-04T21:21:15.606Z,20.27
2018-03-04T21:23:43.299Z,21.83
2018-03-04T21:26:11.717Z,23.30
2018-03-04T21:28:40.217Z,22.48
2018-03-04T21:31:07.928Z,19.05
2018-03-04T21:33:35.540Z,23.10
2018-03-04T21:36:03.592Z,20.70
2018-03-04T21:38:31.853Z,25.62
2018-03-04T21:40:59.500Z,21.95
2018-03-04T21:43:27.145Z,21.77
2018-03-04T21:45:54.754Z,23.75
2018-03-04T21:48:22.400Z,21.23
2018-03-04T21:50:50.033Z,24.10
2018-03-04T21:53:18.461Z,20.88
2018-03-04T21:55:46.074Z,24.35
2018-03-04T21:58:15.115Z,24.67
2018-03-04T22:00:42.784Z,22.80
2018-03-04T22:03:10.404Z,21.92
2018-03-04T22:05:38.861Z,21.90
2018-03-04T22:08:06.490Z,19.87
2018-03-04T22:10:34.142Z,21.42
2018-03-04T22:13:01.821Z,21.75
2018-03-04T22:15:29.704Z,22.37
2018-03-04T22:17:58.282Z,21.97
2018-03-04T22:20:25.900Z,22.25
2018-03-04T22:22:53.534Z,22.48
2018-03-04T22:25:21.162Z,23.17
2018-03-04T22:27:48.804Z,20.40
2018-03-04T22:30:16.457Z,21.27
2018-03-04T22:32:44.898Z,21.30
2018-03-04T22:35:12.581Z,25.62
2018-03-04T22:37:40.530Z,22.83
2018-03-04T22:40:08.290Z,21.23
2018-03-04T22:42:36.677Z,21.35
2018-03-04T22:45:04.332Z,22.23
2018-03-04T22:47:32.753Z,23.60
2018-03-04T22:50:00.396Z,20.70
2018-03-04T22:52:28.013Z,22.10
2018-03-04T22:54:55.681Z,21.98
2018-03-04T22:57:23.370Z,24.12
2018-03-04T22:59:51.905Z,27.02
2018-03-04T23:02:19.546Z,19.58
2018-03-04T23:04:47.595Z,22.58
2018-03-04T23:07:15.278Z,22.05
2018-03-04T23:09:42.943Z,23.05
2018-03-04T23:12:11.353Z,23.38
2018-03-04T23:14:38.985Z,25.00
2018-03-04T23:17:07.472Z,23.67
2018-03-04T23:19:35.055Z,24.10
2018-03-04T23:22:02.719Z,23.77
2018-03-04T23:24:30.341Z,25.98
2018-03-04T23:26:57.994Z,24.95
2018-03-04T23:29:25.648Z,25.37
2018-03-04T23:31:53.315Z,19.87
2018-03-04T23:34:20.932Z,22.98
2018-03-04T23:36:49.974Z,21.48
2018-03-04T23:39:18.660Z,24.95
2018-03-04T23:41:46.287Z,20.08
2018-03-04T23:44:15.127Z,22.77
2018-03-04T23:46:42.796Z,22.50
2018-03-04T23:49:10.791Z,24.27
2018-03-04T23:51:38.417Z,27.15
2018-03-04T23:54:06.045Z,24.33
2018-03-04T23:56:33.687Z,24.05
2018-03-04T23:59:01.322Z,23.25
